createdAt,value
2023-03-26T00:01:29.917Z,99309.84
2023-03-26T00:03:57.824Z,99304.34
2023-03-26T00:06:27.422Z,99306.72
2023-03-26T00:08:58.519Z,99306.34
2023-03-26T00:11:27.612Z,99306.00
2023-03-26T00:13:59.688Z,99313.53
2023-03-26T00:16:30.726Z,99306.13
2023-03-26T00:18:58.290Z,99311.34
2023-03-26T00:21:28.200Z,99310.63
2023-03-26T00:23:58.572Z,99304.84
2023-03-26T00:26:27.247Z,99312.81
2023-03-26T00:28:54.745Z,99309.75
2023-03-26T00:31:21.740Z,99312.25
2023-03-26T00:33:48.440Z,99315.88
2023-03-26T00:36:17.750Z,99316.28
2023-03-26T00:38:46.894Z,99316.38
2023-03-26T00:41:23.217Z,99313.63
2023-03-26T00:43:53.692Z,99316.47
2023-03-26T00:46:20.776Z,99321.59
2023-03-26T00:48:47.633Z,99326.72
2023-03-26T00:51:16.237Z,99319.66
2023-03-26T00:53:44.898Z,99313.41
2023-03-26T00:56:11.893Z,99311.44
2023-03-26T00:58:39.075Z,99313.84
2023-03-26T01:01:19.012Z,99313.47
2023-03-26T01:03:57.101Z,99316.69
2023-03-26T01:06:36.175Z,99317.94
2023-03-26T01:09:17.061Z,99317.56
2023-03-26T01:11:44.894Z,99319.97
2023-03-26T01:14:21.314Z,99324.28
2023-03-26T01:16:55.655Z,99317.22
2023-03-26T01:19:33.993Z,99317.97
2023-03-26T01:22:00.801Z,99325.91
2023-03-26T01:24:27.505Z,99319.97
2023-03-26T01:27:17.936Z,99322.34
2023-03-26T01:29:55.776Z,99323.16
2023-03-26T01:32:37.931Z,99329.09
2023-03-26T01:35:42.526Z,99324.72
2023-03-26T01:38:23.199Z,99335.75
2023-03-26T01:41:14.197Z,99333.78
2023-03-26T01:44:02.390Z,99331.03
2023-03-26T01:46:36.304Z,99339.25
2023-03-26T01:49:04.734Z,99341.13
2023-03-26T01:51:35.984Z,99346.91
2023-03-26T01:54:06.695Z,99334.56
2023-03-26T01:56:50.180Z,99343.06
2023-03-26T01:59:22.975Z,99340.97
2023-03-26T02:02:12.818Z,99344.38
2023-03-26T02:05:21.646Z,99338.38
2023-03-26T02:08:01.585Z,99348.06
2023-03-26T02:10:35.804Z,99338.56
2023-03-26T02:13:03.257Z,99336.88
2023-03-26T02:15:31.064Z,99350.59
2023-03-26T02:17:59.810Z,99347.75
2023-03-26T02:20:30.206Z,99346.88
2023-03-26T02:22:57.986Z,99340.47
2023-03-26T02:25:24.720Z,99342.81
2023-03-26T02:27:53.222Z,99338.81
2023-03-26T02:30:27.061Z,99351.34
2023-03-26T02:32:59.234Z,99359.94
2023-03-26T02:35:26.717Z,99348.94
2023-03-26T02:37:53.457Z,99352.06
2023-03-26T02:40:22.377Z,99358.72
2023-03-26T02:42:49.729Z,99362.66
2023-03-26T02:45:16.445Z,99374.47
2023-03-26T02:47:43.476Z,99371.34
2023-03-26T02:50:11.961Z,99377.28
2023-03-26T02:52:38.791Z,99375.44
2023-03-26T02:55:05.745Z,99380.22
2023-03-26T02:57:32.552Z,99380.66
2023-03-26T02:59:59.457Z,99390.97
2023-03-26T03:02:29.344Z,99393.72
2023-03-26T03:05:01.571Z,99402.75
2023-03-26T03:07:29.152Z,99403.56
2023-03-26T03:09:55.850Z,99407.91
2023-03-26T03:12:22.586Z,99410.31
2023-03-26T03:14:49.243Z,99410.75
2023-03-26T03:17:16.036Z,99403.75
2023-03-26T03:19:43.722Z,99414.81
2023-03-26T03:22:10.401Z,99412.88
2023-03-26T03:24:37.102Z,99411.72
2023-03-26T03:27:04.201Z,99418.81
2023-03-26T03:29:30.890Z,99414.91
2023-03-26T03:32:00.189Z,99420.03
2023-03-26T03:34:27.252Z,99422.81
2023-03-26T03:36:53.988Z,99425.94
2023-03-26T03:39:20.614Z,99428.31
2023-03-26T03:41:47.232Z,99429.13
2023-03-26T03:44:13.855Z,99429.13
2023-03-26T03:46:40.532Z,99429.56
2023-03-26T03:49:07.260Z,99429.94
2023-03-26T03:51:35.256Z,99429.56
2023-03-26T03:54:02.004Z,99430.34
2023-03-26T03:56:29.230Z,99440.22
2023-03-26T03:58:58.396Z,99434.72
2023-03-26T04:01:25.376Z,99441.03
2023-03-26T04:03:52.109Z,99446.19
2023-03-26T04:06:19.128Z,99438.34
2023-03-26T04:08:46.609Z,99451.34
2023-03-26T04:11:14.236Z,99448.59
2023-03-26T04:13:40.940Z,99452.94
2023-03-26T04:16:08.734Z,99449.72
2023-03-26T04:18:36.801Z,99455.25
2023-03-26T04:21:05.332Z,99462.38
2023-03-26T04:23:32.318Z,99462.72
2023-03-26T04:26:04.308Z,99471.34
2023-03-26T04:28:42.415Z,99475.34
2023-03-26T04:31:13.965Z,99482.81
2023-03-26T04:33:40.793Z,99476.50
2023-03-26T04:36:09.530Z,99489.13
2023-03-26T04:38:44.626Z,99496.59
2023-03-26T04:41:15.449Z,99499.34
2023-03-26T04:43:50.458Z,99507.22
2023-03-26T04:46:21.711Z,99500.94
2023-03-26T04:48:52.937Z,99515.97
2023-03-26T04:51:24.785Z,99519.50
2023-03-26T04:53:57.891Z,99526.63
2023-03-26T04:56:24.490Z,99536.50
2023-03-26T04:58:51.907Z,99542.00
2023-03-26T05:01:18.701Z,99542.00
2023-03-26T05:03:45.964Z,99543.59
2023-03-26T05:06:13.792Z,99546.00
2023-03-26T05:08:41.887Z,99568.84
2023-03-26T05:11:11.662Z,99564.84
2023-03-26T05:13:38.683Z,99568.75
2023-03-26T05:16:05.725Z,99575.09
2023-03-26T05:18:32.426Z,99576.22
2023-03-26T05:20:59.089Z,99580.13
2023-03-26T05:23:25.782Z,99593.91
2023-03-26T05:25:52.588Z,99603.78
2023-03-26T05:28:24.855Z,99604.59
2023-03-26T05:30:53.290Z,99612.06
2023-03-26T05:33:21.791Z,99615.94
2023-03-26T05:36:00.209Z,99623.78
2023-03-26T05:38:29.117Z,99631.63
2023-03-26T05:41:05.196Z,99638.72
2023-03-26T05:43:31.877Z,99640.69
2023-03-26T05:45:58.745Z,99642.63
2023-03-26T05:48:26.803Z,99657.56
2023-03-26T05:50:56.176Z,99665.38
2023-03-26T05:53:24.623Z,99666.09
2023-03-26T05:55:57.898Z,99670.78
2023-03-26T05:58:29.916Z,99670.00
2023-03-26T06:01:08.636Z,99684.13
2023-03-26T06:03:40.215Z,99694.34
2023-03-26T06:06:09.108Z,99694.34
2023-03-26T06:08:35.870Z,99698.72
2023-03-26T06:11:07.281Z,99705.72
2023-03-26T06:13:34.275Z,99714.69
2023-03-26T06:16:01.050Z,99728.81
2023-03-26T06:18:27.915Z,99730.41
2023-03-26T06:20:54.787Z,99731.59
2023-03-26T06:23:22.932Z,99745.69
2023-03-26T06:25:49.899Z,99744.88
2023-03-26T06:28:16.821Z,99755.91
2023-03-26T06:30:43.533Z,99766.47
2023-03-26T06:33:10.997Z,99757.41
2023-03-26T06:35:37.724Z,99772.00
2023-03-26T06:38:04.859Z,99779.94
2023-03-26T06:40:32.843Z,99788.97
2023-03-26T06:43:08.022Z,99795.72
2023-03-26T06:45:38.135Z,99802.84
2023-03-26T06:48:05.143Z,99796.53
2023-03-26T06:50:33.212Z,99796.53
2023-03-26T06:53:00.180Z,99809.19
2023-03-26T06:55:27.624Z,99812.38
2023-03-26T06:57:56.045Z,99810.06
2023-03-26T07:00:22.696Z,99833.72
2023-03-26T07:02:50.624Z,99830.97
2023-03-26T07:05:17.443Z,99838.78
2023-03-26T07:07:48.229Z,99844.31
2023-03-26T07:10:15.165Z,99862.41
2023-03-26T07:12:42.878Z,99853.81
2023-03-26T07:15:10.540Z,99865.97
2023-03-26T07:17:38.101Z,99873.91
2023-03-26T07:20:06.587Z,99874.69
2023-03-26T07:22:33.912Z,99879.50
2023-03-26T07:25:01.239Z,99897.66
2023-03-26T07:27:59.099Z,99899.25
2023-03-26T07:31:03.520Z,99917.28
2023-03-26T07:33:38.142Z,99915.69
2023-03-26T07:36:33.711Z,99926.03
2023-03-26T07:39:28.216Z,99933.13
2023-03-26T07:41:57.537Z,99943.34
2023-03-26T07:44:57.447Z,99950.34
2023-03-26T07:47:29.525Z,99962.09
2023-03-26T07:49:59.764Z,99959.78
2023-03-26T07:52:27.186Z,99964.63
2023-03-26T07:54:54.652Z,99973.34
2023-03-26T07:57:44.386Z,99971.97
2023-03-26T08:00:24.648Z,99975.16
2023-03-26T08:03:22.137Z,99994.09
2023-03-26T08:06:05.460Z,99992.50
2023-03-26T08:08:53.875Z,100006.63
2023-03-26T08:11:45.388Z,100019.59
2023-03-26T08:14:12.076Z,100023.84
2023-03-26T08:17:00.729Z,100029.34
2023-03-26T08:20:21.324Z,100033.28
2023-03-26T08:22:56.891Z,100036.50
2023-03-26T08:25:53.153Z,100047.50
2023-03-26T08:28:31.246Z,100059.00
2023-03-26T08:30:58.309Z,100068.44
2023-03-26T08:33:28.060Z,100071.75
2023-03-26T08:35:54.763Z,100070.94
2023-03-26T08:38:21.717Z,100081.94
2023-03-26T08:41:12.716Z,100084.13
2023-03-26T08:44:17.089Z,100093.44
2023-03-26T08:47:04.937Z,100108.03
2023-03-26T08:49:40.548Z,100113.97
2023-03-26T08:52:18.971Z,100128.22
2023-03-26T08:54:57.498Z,100124.09
2023-03-26T08:57:48.801Z,100130.34
2023-03-26T09:00:39.704Z,100138.28
2023-03-26T09:03:24.397Z,100145.31
2023-03-26T09:06:09.080Z,100146.13
2023-03-26T09:08:56.815Z,100152.75
2023-03-26T09:11:23.550Z,100145.06
2023-03-26T09:14:31.611Z,100158.41
2023-03-26T09:17:12.932Z,100171.41
2023-03-26T09:19:48.681Z,100178.97
2023-03-26T09:22:52.858Z,100178.06
2023-03-26T09:25:31.897Z,100202.88
2023-03-26T09:28:28.632Z,100208.63
2023-03-26T09:31:15.605Z,100223.22
2023-03-26T09:34:03.689Z,100239.28
2023-03-26T09:36:39.466Z,100232.03
2023-03-26T09:39:37.541Z,100247.94
2023-03-26T09:42:17.211Z,100253.44
2023-03-26T09:45:10.617Z,100247.69
2023-03-26T09:47:52.872Z,100261.13
2023-03-26T09:51:04.519Z,100277.22
2023-03-26T09:54:06.717Z,100289.41
2023-03-26T09:57:02.911Z,100300.78
2023-03-26T09:59:35.490Z,100296.41
2023-03-26T10:02:12.779Z,100319.63
2023-03-26T10:04:59.770Z,100329.97
2023-03-26T10:07:59.625Z,100330.44
2023-03-26T10:10:31.371Z,100343.41
2023-03-26T10:13:32.473Z,100355.41
2023-03-26T10:16:26.853Z,100368.84
2023-03-26T10:19:30.704Z,100361.69
2023-03-26T10:22:12.351Z,100362.41
2023-03-26T10:24:51.016Z,100366.75
2023-03-26T10:27:46.980Z,100369.75
2023-03-26T10:30:18.491Z,100382.66
2023-03-26T10:32:51.325Z,100382.81
2023-03-26T10:35:24.003Z,100407.31
2023-03-26T10:38:11.031Z,100397.41
2023-03-26T10:40:54.537Z,100405.22
2023-03-26T10:43:45.279Z,100417.25
2023-03-26T10:46:25.453Z,100413.44
2023-03-26T10:49:25.477Z,100426.75
2023-03-26T10:51:55.974Z,100430.19
2023-03-26T10:54:33.018Z,100440.78
2023-03-26T10:57:03.185Z,100454.09
2023-03-26T10:59:30.720Z,100449.53
2023-03-26T11:02:19.605Z,100459.66
2023-03-26T11:05:15.047Z,100471.19
2023-03-26T11:07:50.792Z,100477.88
2023-03-26T11:10:27.693Z,100482.56
2023-03-26T11:13:23.013Z,100491.78
2023-03-26T11:16:05.605Z,100499.25
2023-03-26T11:18:35.383Z,100506.72
2023-03-26T11:21:19.921Z,100507.03
2023-03-26T11:24:09.148Z,100516.47
2023-03-26T11:26:49.079Z,100522.47
2023-03-26T11:29:43.065Z,100521.31
2023-03-26T11:32:14.263Z,100527.44
2023-03-26T11:35:40.667Z,100539.72
2023-03-26T11:38:33.604Z,100540.63
2023-03-26T11:41:03.620Z,100538.13
2023-03-26T11:43:35.361Z,100556.78
2023-03-26T11:46:09.944Z,100554.47
2023-03-26T11:48:46.894Z,100558.44
2023-03-26T11:51:25.428Z,100570.94
2023-03-26T11:53:52.279Z,100581.56
2023-03-26T11:57:05.995Z,100582.31
2023-03-26T11:59:45.283Z,100581.66
2023-03-26T12:02:29.330Z,100601.91
2023-03-26T12:05:27.526Z,100602.66
2023-03-26T12:08:03.511Z,100624.03
2023-03-26T12:10:37.842Z,100631.22
2023-03-26T12:13:36.266Z,100643.13
2023-03-26T12:16:16.635Z,100645.44
2023-03-26T12:18:45.700Z,100652.81
2023-03-26T12:21:17.278Z,100657.28
2023-03-26T12:24:05.723Z,100663.28
2023-03-26T12:26:37.335Z,100664.41
2023-03-26T12:29:17.215Z,100673.06
2023-03-26T12:31:51.161Z,100680.50
2023-03-26T12:34:22.073Z,100673.06
2023-03-26T12:36:51.952Z,100684.41
2023-03-26T12:40:06.774Z,100688.44
2023-03-26T12:44:44.825Z,100701.88
2023-03-26T12:45:28.053Z,100712.19
2023-03-26T12:48:03.746Z,100713.13
2023-03-26T12:50:58.601Z,100717.59
2023-03-26T12:54:03.262Z,100727.47
2023-03-26T12:56:47.778Z,100736.03
2023-03-26T12:59:29.877Z,100740.06
2023-03-26T13:02:34.058Z,100750.38
2023-03-26T13:05:06.146Z,100744.28
2023-03-26T13:07:36.420Z,100749.81
2023-03-26T13:10:29.304Z,100752.13
2023-03-26T13:14:01.945Z,100756.56
2023-03-26T13:16:56.123Z,100763.59
2023-03-26T13:19:53.740Z,100768.13
2023-03-26T13:22:36.130Z,100768.06
2023-03-26T13:25:36.910Z,100775.72
2023-03-26T13:28:45.438Z,100782.22
2023-03-26T13:31:38.818Z,100794.94
2023-03-26T13:34:33.583Z,100792.19
2023-03-26T13:37:14.736Z,100788.88
2023-03-26T13:40:00.297Z,100791.06
2023-03-26T13:43:08.292Z,100800.75
2023-03-26T13:45:47.811Z,100812.06
2023-03-26T13:48:21.434Z,100816.03
2023-03-26T13:51:13.114Z,100810.34
2023-03-26T13:53:57.580Z,100824.31
2023-03-26T13:56:33.417Z,100825.59
2023-03-26T13:59:05.775Z,100834.69
2023-03-26T14:01:43.800Z,100839.44
2023-03-26T14:04:19.350Z,100841.63
2023-03-26T14:06:46.764Z,100840.59
2023-03-26T14:09:17.612Z,100840.47
2023-03-26T14:11:58.296Z,100835.84
2023-03-26T14:14:36.811Z,100840.44
2023-03-26T14:17:31.059Z,100840.34
2023-03-26T14:20:22.596Z,100850.38
2023-03-26T14:23:24.068Z,100847.09
2023-03-26T14:25:56.686Z,100852.19
2023-03-26T14:28:54.867Z,100855.78
2023-03-26T14:31:43.032Z,100863.78
2023-03-26T14:34:24.769Z,100865.19
2023-03-26T14:37:27.474Z,100874.75
2023-03-26T14:40:22.322Z,100877.16
2023-03-26T14:43:04.358Z,100880.53
2023-03-26T14:46:07.559Z,100876.59
2023-03-26T14:48:37.405Z,100883.44
2023-03-26T14:51:23.202Z,100892.69
2023-03-26T14:54:12.180Z,100898.44
2023-03-26T14:56:57.033Z,100900.97
2023-03-26T15:00:02.918Z,100894.53
2023-03-26T15:02:44.558Z,100899.59
2023-03-26T15:05:23.448Z,100915.06
2023-03-26T15:08:14.913Z,100920.97
2023-03-26T15:11:03.439Z,100933.47
2023-03-26T15:14:03.970Z,100936.59
2023-03-26T15:17:08.477Z,100940.28
2023-03-26T15:19:54.078Z,100947.31
2023-03-26T15:22:36.190Z,100940.94
2023-03-26T15:25:09.926Z,100954.13
2023-03-26T15:27:50.379Z,100970.84
2023-03-26T15:30:42.432Z,100966.56
2023-03-26T15:34:00.951Z,100979.84
2023-03-26T15:36:53.213Z,100975.78
2023-03-26T15:39:59.226Z,100969.97
2023-03-26T15:42:38.217Z,100973.19
2023-03-26T15:45:31.988Z,100986.50
2023-03-26T15:48:11.716Z,100985.81
2023-03-26T15:51:00.366Z,100981.31
2023-03-26T15:53:45.591Z,100985.44
2023-03-26T15:56:18.361Z,100980.63
2023-03-26T15:58:48.218Z,100990.03
2023-03-26T16:01:35.184Z,100993.00
2023-03-26T16:04:11.133Z,100990.66
2023-03-26T16:07:09.636Z,100990.88
2023-03-26T16:09:48.388Z,100998.47
2023-03-26T16:12:27.140Z,101008.53
2023-03-26T16:15:14.777Z,101013.19
2023-03-26T16:18:10.426Z,101023.19
2023-03-26T16:20:54.946Z,101026.19
2023-03-26T16:23:25.047Z,101032.09
2023-03-26T16:26:12.817Z,101043.00
2023-03-26T16:28:45.470Z,101037.00
2023-03-26T16:31:36.363Z,101041.31
2023-03-26T16:34:09.238Z,101043.63
2023-03-26T16:36:43.070Z,101051.59
2023-03-26T16:39:21.706Z,101055.19
2023-03-26T16:41:50.291Z,101065.09
2023-03-26T16:44:30.474Z,101066.22
2023-03-26T16:47:24.137Z,101073.38
2023-03-26T16:50:08.334Z,101081.19
2023-03-26T16:52:57.016Z,101089.31
2023-03-26T16:55:48.598Z,101104.44
2023-03-26T16:58:28.010Z,101107.19
2023-03-26T17:01:27.391Z,101102.00
2023-03-26T17:04:10.594Z,101105.13
2023-03-26T17:06:56.740Z,101104.28
2023-03-26T17:09:37.948Z,101108.50
2023-03-26T17:12:40.814Z,101123.13
2023-03-26T17:15:13.538Z,101136.63
2023-03-26T17:17:59.021Z,101147.66
2023-03-26T17:20:36.844Z,101154.66
2023-03-26T17:23:26.770Z,101159.84
2023-03-26T17:25:53.442Z,101167.66
2023-03-26T17:28:29.437Z,101172.19
2023-03-26T17:31:05.465Z,101179.81
2023-03-26T17:33:38.745Z,101176.09
2023-03-26T17:36:11.640Z,101186.63
2023-03-26T17:38:45.411Z,101187.78
2023-03-26T17:41:15.397Z,101187.31
2023-03-26T17:43:52.270Z,101191.53
2023-03-26T17:46:25.133Z,101195.25
2023-03-26T17:49:16.485Z,101200.28
2023-03-26T17:51:59.717Z,101205.81
2023-03-26T17:54:44.108Z,101202.88
2023-03-26T17:57:41.913Z,101213.91
2023-03-26T18:00:20.984Z,101212.31
2023-03-26T18:02:56.361Z,101216.19
2023-03-26T18:05:26.995Z,101218.94
2023-03-26T18:08:06.259Z,101220.91
2023-03-26T18:10:47.830Z,101224.81
2023-03-26T18:13:23.399Z,101229.81
2023-03-26T18:15:53.215Z,101228.03
2023-03-26T18:18:25.813Z,101229.97
2023-03-26T18:20:55.145Z,101233.72
2023-03-26T18:23:34.216Z,101228.53
2023-03-26T18:26:16.464Z,101234.19
2023-03-26T18:28:54.749Z,101233.19
2023-03-26T18:31:26.486Z,101233.81
2023-03-26T18:33:59.345Z,101235.78
2023-03-26T18:36:30.501Z,101233.34
2023-03-26T18:39:00.753Z,101236.44
2023-03-26T18:41:33.133Z,101248.25
2023-03-26T18:44:05.740Z,101258.50
2023-03-26T18:46:33.835Z,101261.91
2023-03-26T18:49:03.042Z,101265.16
2023-03-26T18:51:31.851Z,101269.56
2023-03-26T18:54:02.964Z,101279.78
2023-03-26T18:56:38.891Z,101283.16
2023-03-26T18:59:17.586Z,101289.31
2023-03-26T19:01:47.301Z,101284.28
2023-03-26T19:04:16.342Z,101286.22
2023-03-26T19:06:44.479Z,101285.88
2023-03-26T19:09:27.953Z,101290.91
2023-03-26T19:12:04.518Z,101287.47
2023-03-26T19:14:35.338Z,101304.97
2023-03-26T19:17:06.950Z,101303.16
2023-03-26T19:19:37.704Z,101308.78
2023-03-26T19:22:07.141Z,101313.59
2023-03-26T19:24:34.463Z,101313.44
2023-03-26T19:27:01.318Z,101327.38
2023-03-26T19:29:31.881Z,101326.34
2023-03-26T19:32:04.854Z,101334.25
2023-03-26T19:34:39.352Z,101333.22
2023-03-26T19:37:22.800Z,101328.66
2023-03-26T19:40:09.399Z,101330.84
2023-03-26T19:42:44.102Z,101344.28
2023-03-26T19:45:18.840Z,101345.13
2023-03-26T19:47:50.351Z,101345.53
2023-03-26T19:50:26.044Z,101354.25
2023-03-26T19:53:16.263Z,101363.41
2023-03-26T19:55:57.419Z,101362.72
2023-03-26T19:58:26.053Z,101360.88
2023-03-26T20:00:53.235Z,101348.06
2023-03-26T20:03:36.907Z,101364.19
2023-03-26T20:06:03.813Z,101369.78
2023-03-26T20:08:30.496Z,101359.69
2023-03-26T20:10:58.043Z,101365.50
2023-03-26T20:13:25.767Z,101360.13
2023-03-26T20:16:05.423Z,101365.72
2023-03-26T20:18:33.898Z,101367.16
2023-03-26T20:21:00.635Z,101369.97
2023-03-26T20:23:29.014Z,101378.06
2023-03-26T20:25:56.557Z,101384.16
2023-03-26T20:28:24.599Z,101392.53
2023-03-26T20:30:54.358Z,101393.13
2023-03-26T20:33:28.020Z,101403.09
2023-03-26T20:35:56.936Z,101398.22
2023-03-26T20:38:36.570Z,101394.75
2023-03-26T20:41:06.343Z,101396.16
2023-03-26T20:43:32.996Z,101399.81
2023-03-26T20:45:59.713Z,101390.81
2023-03-26T20:48:26.682Z,101402.47
2023-03-26T20:50:54.134Z,101398.38
2023-03-26T20:53:21.087Z,101398.16
2023-03-26T20:55:50.402Z,101408.94
2023-03-26T20:58:30.773Z,101417.28
2023-03-26T21:01:01.651Z,101407.69
2023-03-26T21:03:28.658Z,101405.53
2023-03-26T21:06:00.005Z,101418.03
2023-03-26T21:08:30.224Z,101427.69
2023-03-26T21:11:02.099Z,101422.78
2023-03-26T21:13:43.718Z,101428.88
2023-03-26T21:16:12.177Z,101430.63
2023-03-26T21:18:39.838Z,101437.28
2023-03-26T21:21:24.583Z,101434.84
2023-03-26T21:24:03.333Z,101448.06
2023-03-26T21:26:41.593Z,101450.09
2023-03-26T21:29:08.784Z,101450.13
2023-03-26T21:31:38.049Z,101466.47
2023-03-26T21:34:05.598Z,101464.56
2023-03-26T21:36:33.406Z,101471.72
2023-03-26T21:39:00.396Z,101467.41
2023-03-26T21:41:48.378Z,101476.84
2023-03-26T21:44:32.866Z,101485.34
2023-03-26T21:46:59.713Z,101485.16
2023-03-26T21:49:26.757Z,101493.66
2023-03-26T21:51:53.663Z,101480.81
2023-03-26T21:54:30.112Z,101484.72
2023-03-26T21:57:20.633Z,101493.84
2023-03-26T22:00:02.366Z,101489.78
2023-03-26T22:02:58.283Z,101482.94
2023-03-26T22:05:30.265Z,101487.34
2023-03-26T22:07:58.740Z,101489.88
2023-03-26T22:10:27.052Z,101491.56
2023-03-26T22:12:54.030Z,101489.34
2023-03-26T22:15:21.833Z,101492.09
2023-03-26T22:17:54.150Z,101491.03
2023-03-26T22:20:24.649Z,101489.97
2023-03-26T22:22:53.458Z,101504.59
2023-03-26T22:25:21.917Z,101512.03
2023-03-26T22:27:50.664Z,101511.22
2023-03-26T22:30:17.635Z,101521.97
2023-03-26T22:32:44.826Z,101518.69
2023-03-26T22:35:12.931Z,101521.47
2023-03-26T22:37:40.022Z,101536.06
2023-03-26T22:40:13.799Z,101524.63
2023-03-26T22:42:41.608Z,101529.03
2023-03-26T22:45:09.455Z,101524.47
2023-03-26T22:47:36.254Z,101529.19
2023-03-26T22:50:04.271Z,101542.06
2023-03-26T22:52:31.406Z,101542.31
2023-03-26T22:54:58.074Z,101541.50
2023-03-26T22:57:24.827Z,101548.06
2023-03-26T22:59:52.182Z,101546.16
2023-03-26T23:02:19.826Z,101549.19
2023-03-26T23:04:47.869Z,101556.06
2023-03-26T23:07:14.948Z,101555.00
2023-03-26T23:09:41.745Z,101561.03
2023-03-26T23:12:08.759Z,101569.28
2023-03-26T23:14:36.273Z,101572.31
2023-03-26T23:17:02.984Z,101573.97
2023-03-26T23:19:30.171Z,101570.69
2023-03-26T23:21:57.541Z,101575.66
2023-03-26T23:24:26.494Z,101565.78
2023-03-26T23:26:53.454Z,101570.75
2023-03-26T23:29:20.151Z,101577.34
2023-03-26T23:31:47.086Z,101577.34
2023-03-26T23:34:14.304Z,101580.09
2023-03-26T23:36:41.956Z,101582.31
2023-03-26T23:39:09.329Z,101573.56
2023-03-26T23:41:37.062Z,101574.66
2023-03-26T23:44:04.472Z,101574.94
2023-03-26T23:46:34.712Z,101577.94
2023-03-26T23:49:05.044Z,101591.66
2023-03-26T23:51:32.874Z,101592.78
2023-03-26T23:54:00.521Z,101598.81
2023-03-26T23:56:29.986Z,101601.03
2023-03-26T23:58:56.938Z,101602.66
